Time;durP1;ratioP1;P1;durP2;ratioP2;P2;SDS_P1;SDS_P2;PMS_P1;PMS_P2;Temp;Humidity;BMP_temperature;BMP_pressure;BME280_temperature;BME280_humidity;BME280_pressure;Samples;Min_cycle;Max_cycle;Signal;HPM_P1;HPM_P2
2021/01/27 00:01:46;;;;;;;12.37;6.20;;;3.10;84.40;;;;;;5054213;28;20055;-74
2021/01/27 00:04:11;;;;;;;14.27;6.53;;;3.30;84.60;;;;;;5052866;28;20025;-74
2021/01/27 00:06:37;;;;;;;12.23;6.63;;;3.30;85.20;;;;;;5052900;28;20122;-74
2021/01/27 00:09:03;;;;;;;11.80;6.37;;;3.30;84.60;;;;;;5052875;28;20025;-75
2021/01/27 00:11:29;;;;;;;13.07;5.80;;;3.20;84.30;;;;;;5054321;28;20029;-75
2021/01/27 00:13:54;;;;;;;10.40;5.87;;;3.20;84.40;;;;;;5053098;28;20108;-75
2021/01/27 00:16:20;;;;;;;10.87;6.00;;;3.10;85.00;;;;;;5036157;28;20025;-75
2021/01/27 00:18:45;;;;;;;15.37;6.53;;;3.20;85.30;;;;;;5053883;28;20029;-75
2021/01/27 00:21:11;;;;;;;10.37;6.50;;;3.20;85.40;;;;;;5053939;28;20033;-75
2021/01/27 00:23:37;;;;;;;9.43;6.20;;;3.30;84.80;;;;;;5053692;28;20029;-75
2021/01/27 00:26:02;;;;;;;10.87;6.07;;;3.30;85.10;;;;;;5054416;28;20041;-74
2021/01/27 00:28:28;;;;;;;12.43;6.43;;;3.30;84.10;;;;;;5052731;28;20036;-74
2021/01/27 00:30:53;;;;;;;13.17;5.17;;;3.30;84.80;;;;;;5053789;28;20029;-74
2021/01/27 00:33:19;;;;;;;9.43;5.23;;;3.20;84.60;;;;;;5053748;28;20029;-74
2021/01/27 00:35:46;;;;;;;10.50;5.63;;;3.30;85.20;;;;;;5052539;28;20377;-74
2021/01/27 00:38:20;;;;;;;8.73;5.10;;;3.30;85.00;;;;;;5054266;28;20021;-75
2021/01/27 00:40:46;;;;;;;8.30;4.80;;;3.50;84.00;;;;;;5052844;28;20111;-75
2021/01/27 00:43:12;;;;;;;10.87;4.70;;;3.40;84.60;;;;;;5036092;28;20457;-74
2021/01/27 00:45:37;;;;;;;7.87;5.13;;;3.20;85.40;;;;;;5035757;28;20051;-74
2021/01/27 00:48:04;;;;;;;7.27;4.83;;;3.00;86.60;;;;;;5035833;28;20120;-74
2021/01/27 00:50:29;;;;;;;10.47;5.20;;;2.90;86.90;;;;;;5035451;28;20032;-74
2021/01/27 00:52:55;;;;;;;7.47;4.63;;;2.90;87.10;;;;;;5053573;28;20382;-74
2021/01/27 00:55:24;;;;;;;9.37;5.60;;;2.90;87.50;;;;;;5052303;28;20025;-74
2021/01/27 00:57:50;;;;;;;8.23;6.03;;;3.10;87.20;;;;;;5052358;28;20022;-73
2021/01/27 01:00:22;;;;;;;8.53;4.73;;;3.30;86.30;;;;;;5036419;28;20039;-74
2021/01/27 01:02:48;;;;;;;5.10;4.37;;;3.20;85.90;;;;;;5056690;28;20474;-74
2021/01/27 01:05:17;;;;;;;5.40;4.50;;;2.80;86.80;;;;;;5056658;28;20458;-74
2021/01/27 01:07:46;;;;;;;7.10;5.10;;;2.90;87.20;;;;;;5023414;28;20036;-74
2021/01/27 01:10:12;;;;;;;7.83;5.03;;;3.10;86.50;;;;;;5057767;28;20021;-74
2021/01/27 01:12:38;;;;;;;7.37;4.53;;;2.90;86.80;;;;;;5056121;28;20048;-74
2021/01/27 01:15:04;;;;;;;5.67;4.53;;;2.90;86.70;;;;;;5057450;28;20431;-74
2021/01/27 01:17:30;;;;;;;6.90;5.13;;;2.90;87.10;;;;;;5057398;28;20040;-74
2021/01/27 01:19:55;;;;;;;7.47;4.80;;;3.00;87.00;;;;;;5056057;28;20033;-74
2021/01/27 01:22:21;;;;;;;5.97;4.33;;;3.10;86.40;;;;;;5057438;28;20029;-74
2021/01/27 01:24:46;;;;;;;6.33;4.40;;;3.00;86.40;;;;;;5057115;28;20033;-74
2021/01/27 01:27:12;;;;;;;7.20;4.67;;;2.90;87.20;;;;;;5057134;28;20458;-74
2021/01/27 01:29:37;;;;;;;4.37;3.67;;;2.70;88.00;;;;;;5056747;28;20025;-74
2021/01/27 01:32:03;;;;;;;5.97;3.97;;;2.70;88.10;;;;;;5039353;28;20114;-74
2021/01/27 01:34:29;;;;;;;5.00;4.37;;;2.70;88.40;;;;;;5056933;28;20036;-74
2021/01/27 01:36:55;;;;;;;6.43;4.60;;;2.60;88.60;;;;;;5055773;28;20025;-74
2021/01/27 01:39:20;;;;;;;4.40;3.83;;;2.70;88.60;;;;;;5057526;28;20427;-74
2021/01/27 01:41:46;;;;;;;6.43;4.47;;;2.70;88.50;;;;;;5055631;28;20116;-74
2021/01/27 01:44:11;;;;;;;4.80;4.10;;;2.90;87.40;;;;;;5055487;28;20524;-74
2021/01/27 01:46:37;;;;;;;4.30;3.90;;;3.00;86.90;;;;;;5056808;28;20112;-74
2021/01/27 01:49:07;;;;;;;4.93;4.13;;;2.90;87.00;;;;;;5056762;28;20405;-74
2021/01/27 01:51:36;;;;;;;4.40;3.90;;;2.90;86.90;;;;;;5023104;28;20067;-74
2021/01/27 01:54:09;;;;;;;4.80;3.70;;;2.80;87.80;;;;;;5056401;28;20032;-74
2021/01/27 01:56:35;;;;;;;5.50;4.30;;;2.80;88.00;;;;;;5039930;28;20457;-74
2021/01/27 01:59:02;;;;;;;4.83;3.60;;;2.90;87.70;;;;;;5022292;28;20480;-74
2021/01/27 02:01:28;;;;;;;4.37;3.87;;;2.90;87.50;;;;;;5055904;28;20025;-74
2021/01/27 02:03:53;;;;;;;7.13;4.87;;;2.70;88.10;;;;;;5055229;28;20058;-74
2021/01/27 02:06:19;;;;;;;5.37;4.13;;;3.00;87.70;;;;;;5054995;28;20108;-74
2021/01/27 02:08:53;;;;;;;4.30;3.80;;;3.00;86.90;;;;;;5038713;28;20025;-74
2021/01/27 02:11:21;;;;;;;4.93;3.50;;;2.90;87.50;;;;;;5039153;28;20025;-74
2021/01/27 02:13:59;;;;;;;4.00;3.60;;;2.70;88.10;;;;;;5055000;28;20025;-74
2021/01/27 02:16:45;;;;;;;4.00;3.60;;;2.60;88.80;;;;;;5055405;28;20033;-73
2021/01/27 02:19:30;;;;;;;5.20;3.10;;;2.60;89.10;;;;;;5054862;28;20033;-74
2021/01/27 02:22:10;;;;;;;3.63;2.80;;;2.60;88.90;;;;;;5056147;28;20099;-74
2021/01/27 02:24:57;;;;;;;6.25;3.80;;;2.60;88.90;;;;;;5056567;28;20031;-74
2021/01/27 02:27:45;;;;;;;6.10;3.27;;;2.60;89.40;;;;;;5056079;28;20029;-74
2021/01/27 02:30:31;;;;;;;3.83;2.90;;;2.60;89.00;;;;;;5054553;28;20027;-74
2021/01/27 02:32:59;;;;;;;3.37;2.80;;;2.60;88.80;;;;;;5055222;28;20049;-74
2021/01/27 02:35:37;;;;;;;5.07;3.00;;;2.70;88.80;;;;;;5055538;28;20104;-74
2021/01/27 02:38:31;;;;;;;5.70;3.13;;;2.60;89.00;;;;;;5055636;28;20021;-74
2021/01/27 02:41:02;;;;;;;3.10;2.40;;;2.50;89.50;;;;;;5037655;28;20040;-73
2021/01/27 02:43:31;;;;;;;4.53;3.27;;;2.60;89.00;;;;;;5038107;28;20466;-74
2021/01/27 02:45:59;;;;;;;3.63;3.13;;;2.50;89.70;;;;;;5037794;28;20029;-73
2021/01/27 02:48:29;;;;;;;5.33;2.80;;;2.60;89.70;;;;;;5054243;28;20052;-74
2021/01/27 02:51:15;;;;;;;3.42;2.92;;;2.60;89.10;;;;;;5054544;28;20025;-74
2021/01/27 02:53:45;;;;;;;4.90;3.13;;;2.60;89.20;;;;;;5055158;28;20056;-73
2021/01/27 02:56:17;;;;;;;3.63;2.75;;;2.60;89.20;;;;;;5054415;28;20021;-73
2021/01/27 02:59:01;;;;;;;4.03;3.17;;;2.60;89.80;;;;;;5054124;28;20531;-73
2021/01/27 03:01:42;;;;;;;5.13;3.43;;;2.60;89.80;;;;;;5038860;28;20031;-74
2021/01/27 03:04:31;;;;;;;3.55;2.72;;;2.60;89.70;;;;;;5054396;28;20021;-74
2021/01/27 03:06:57;;;;;;;4.70;3.23;;;2.60;89.80;;;;;;5039880;28;20037;-74
2021/01/27 03:09:38;;;;;;;5.00;3.60;;;2.50;90.10;;;;;;5037254;28;20509;-74
2021/01/27 03:12:04;;;;;;;4.10;3.45;;;2.50;90.40;;;;;;5054894;28;20128;-74
2021/01/27 03:14:29;;;;;;;8.03;4.20;;;2.50;90.40;;;;;;5054096;28;20029;-75
2021/01/27 03:17:07;;;;;;;10.90;3.90;;;2.60;90.70;;;;;;5037186;28;20029;-74
2021/01/27 03:19:58;;;;;;;8.03;4.60;;;2.60;90.60;;;;;;5038435;28;20020;-74
2021/01/27 03:22:29;;;;;;;5.10;3.40;;;2.70;90.70;;;;;;5021938;28;20021;-74
2021/01/27 03:25:00;;;;;;;5.68;4.05;;;2.60;90.70;;;;;;5052636;28;20025;-74
2021/01/27 03:27:33;;;;;;;4.40;3.53;;;2.60;91.00;;;;;;5037364;28;20537;-74
2021/01/27 03:29:59;;;;;;;6.60;4.10;;;2.50;91.00;;;;;;5037724;28;20370;-74
2021/01/27 03:32:24;;;;;;;5.30;4.00;;;2.50;91.20;;;;;;5054983;28;20025;-74
2021/01/27 03:35:04;;;;;;;6.03;2.87;;;2.60;91.10;;;;;;5054458;28;20036;-74
2021/01/27 03:37:55;;;;;;;4.20;3.47;;;2.60;90.90;;;;;;5038616;28;20159;-74
2021/01/27 03:40:20;;;;;;;5.32;3.45;;;2.60;91.20;;;;;;5053455;28;20462;-74
2021/01/27 03:42:56;;;;;;;6.97;3.40;;;2.50;91.20;;;;;;5037311;28;20021;-74
2021/01/27 03:45:23;;;;;;;9.33;3.80;;;2.60;91.10;;;;;;5053244;28;20474;-74
2021/01/27 03:48:05;;;;;;;8.57;3.83;;;2.50;91.40;;;;;;5053000;28;20017;-74
2021/01/27 03:50:31;;;;;;;5.90;4.57;;;2.50;91.60;;;;;;5020585;28;20095;-74
2021/01/27 03:52:59;;;;;;;6.23;4.10;;;2.50;91.80;;;;;;5036657;28;20445;-74
2021/01/27 03:55:34;;;;;;;6.40;4.43;;;2.50;91.50;;;;;;5036870;28;20056;-74
2021/01/27 03:58:16;;;;;;;3.47;3.00;;;2.50;91.70;;;;;;5037729;28;20454;-74
2021/01/27 04:00:42;;;;;;;13.40;3.40;;;2.50;91.50;;;;;;5038472;28;20017;-74
2021/01/27 04:03:16;;;;;;;4.57;3.37;;;2.40;91.70;;;;;;5053043;28;20063;-74
2021/01/27 04:05:41;;;;;;;5.40;4.03;;;2.30;91.90;;;;;;5037948;28;20377;-74
2021/01/27 04:08:07;;;;;;;5.67;4.40;;;2.30;92.00;;;;;;5036439;28;20025;-74
2021/01/27 04:10:33;;;;;;;5.10;4.53;;;2.40;92.00;;;;;;5054385;28;20435;-74
2021/01/27 04:12:58;;;;;;;7.83;4.13;;;2.40;91.90;;;;;;5054657;28;20393;-74
2021/01/27 04:15:24;;;;;;;5.63;4.37;;;2.40;92.00;;;;;;5054030;28;20021;-74
2021/01/27 04:17:50;;;;;;;4.97;3.90;;;2.40;92.10;;;;;;5053842;28;20035;-74
2021/01/27 04:20:15;;;;;;;6.20;4.80;;;2.40;92.00;;;;;;5052818;28;20033;-74
2021/01/27 04:22:41;;;;;;;7.13;4.17;;;2.40;92.10;;;;;;5053960;28;20075;-74
2021/01/27 04:25:07;;;;;;;7.23;4.83;;;2.40;92.00;;;;;;5052662;28;20033;-74
2021/01/27 04:27:33;;;;;;;6.73;4.23;;;2.50;92.10;;;;;;5052616;28;20064;-74
2021/01/27 04:29:58;;;;;;;5.80;4.20;;;2.40;91.90;;;;;;5054106;28;20064;-74
2021/01/27 04:32:24;;;;;;;5.20;4.37;;;2.50;92.10;;;;;;5052573;28;20029;-74
2021/01/27 04:34:49;;;;;;;7.53;4.77;;;2.40;92.10;;;;;;5053501;28;20037;-74
2021/01/27 04:37:15;;;;;;;7.03;4.97;;;2.40;92.00;;;;;;5052270;28;20040;-74
2021/01/27 04:39:41;;;;;;;6.70;4.70;;;2.40;92.20;;;;;;5035885;28;20032;-74
2021/01/27 04:42:08;;;;;;;8.40;5.27;;;2.40;92.10;;;;;;5053698;28;20021;-74
2021/01/27 04:44:34;;;;;;;6.97;5.60;;;2.50;92.20;;;;;;5052553;28;20086;-74
2021/01/27 04:47:16;;;;;;;8.33;5.20;;;2.50;92.10;;;;;;5053873;28;20467;-74
2021/01/27 04:49:44;;;;;;;7.43;5.97;;;2.50;91.90;;;;;;5052448;28;20072;-74
2021/01/27 04:52:13;;;;;;;6.20;5.27;;;2.50;92.10;;;;;;5036399;28;20024;-74
2021/01/27 04:54:48;;;;;;;8.47;5.60;;;2.50;92.20;;;;;;5052375;28;20029;-74
2021/01/27 04:57:32;;;;;;;8.20;5.23;;;2.50;92.30;;;;;;5035590;28;20021;-74
2021/01/27 05:00:07;;;;;;;6.67;4.87;;;2.50;92.20;;;;;;5053557;28;20070;-74
2021/01/27 05:03:03;;;;;;;10.77;5.87;;;2.40;92.20;;;;;;5053459;28;20036;-74
2021/01/27 05:05:30;;;;;;;9.70;5.73;;;2.40;92.50;;;;;;5052128;28;20048;-74
2021/01/27 05:07:59;;;;;;;8.83;6.30;;;2.40;92.50;;;;;;5053464;28;20033;-74
2021/01/27 05:10:29;;;;;;;9.63;6.07;;;2.40;92.60;;;;;;5052264;28;20043;-74
2021/01/27 05:12:57;;;;;;;8.18;5.47;;;2.40;92.80;;;;;;5036196;28;20021;-74
2021/01/27 05:15:23;;;;;;;9.27;6.67;;;2.40;92.90;;;;;;5031112;28;20045;-74
2021/01/27 05:17:48;;;;;;;9.27;6.37;;;2.60;92.70;;;;;;5014561;28;20116;-74
2021/01/27 05:20:15;;;;;;;7.23;5.27;;;2.60;92.40;;;;;;5014528;28;20431;-74
2021/01/27 05:22:41;;;;;;;8.10;6.33;;;2.60;92.20;;;;;;5031302;28;20044;-75
2021/01/27 05:25:10;;;;;;;10.37;7.13;;;2.70;92.30;;;;;;5030942;28;20510;-75
2021/01/27 05:27:36;;;;;;;9.17;7.37;;;2.60;92.20;;;;;;5014379;28;20057;-75
2021/01/27 05:30:14;;;;;;;8.67;6.60;;;2.50;92.50;;;;;;5014572;28;20069;-75
2021/01/27 05:32:50;;;;;;;8.03;6.83;;;2.60;92.50;;;;;;5014795;28;20087;-75
2021/01/27 05:35:31;;;;;;;7.57;6.17;;;2.60;92.50;;;;;;5031007;28;20092;-74
2021/01/27 05:37:57;;;;;;;;;;;2.60;92.50;;;;;;5014839;28;20022;-75
2021/01/27 05:40:31;;;;;;;8.13;6.60;;;2.70;92.50;;;;;;5014439;28;19909;-75
2021/01/27 05:42:56;;;;;;;8.43;7.23;;;2.70;92.30;;;;;;5014412;28;20026;-75
2021/01/27 05:45:31;;;;;;;8.57;6.90;;;2.70;92.30;;;;;;5016433;28;20041;-75
2021/01/27 05:48:21;;;;;;;7.63;6.50;;;2.80;92.20;;;;;;5055489;28;20028;-75
2021/01/27 05:50:47;;;;;;;6.50;5.70;;;2.70;92.20;;;;;;5057305;28;20020;-75
2021/01/27 05:53:17;;;;;;;12.50;6.20;;;2.70;92.40;;;;;;5055670;28;20591;-75
2021/01/27 05:56:05;;;;;;;9.43;7.40;;;2.60;92.80;;;;;;5038831;28;20132;-75
2021/01/27 05:58:32;;;;;;;10.07;7.70;;;2.70;92.70;;;;;;5056701;28;20021;-75
2021/01/27 06:01:25;;;;;;;9.90;7.63;;;2.80;92.30;;;;;;5038947;28;20025;-75
2021/01/27 06:03:58;;;;;;;9.73;7.70;;;2.80;92.30;;;;;;5039300;28;20021;-75
2021/01/27 06:06:25;;;;;;;10.23;8.07;;;2.80;92.40;;;;;;5056187;28;20025;-75
2021/01/27 06:08:53;;;;;;;6.70;6.00;;;2.80;92.30;;;;;;5054964;28;20112;-75
2021/01/27 06:11:19;;;;;;;12.80;8.97;;;2.80;92.20;;;;;;5038375;28;20031;-74
2021/01/27 06:13:45;;;;;;;8.07;6.93;;;2.70;92.60;;;;;;5055124;28;20030;-74
2021/01/27 06:16:22;;;;;;;9.23;8.20;;;2.70;92.80;;;;;;5055392;28;20024;-77
2021/01/27 06:18:47;;;;;;;10.87;9.17;;;2.70;92.90;;;;;;5054992;28;20032;-75
2021/01/27 06:21:44;;;;;;;12.20;9.43;;;2.70;92.90;;;;;;5055813;28;20024;-75
2021/01/27 06:24:37;;;;;;;14.37;10.33;;;2.80;92.80;;;;;;5055170;28;20021;-75
2021/01/27 06:27:30;;;;;;;14.47;9.57;;;2.80;92.70;;;;;;5040189;28;20056;-76
2021/01/27 06:30:06;;;;;;;12.40;9.43;;;2.80;92.90;;;;;;5056311;28;20021;-74
2021/01/27 06:33:05;;;;;;;13.50;9.40;;;2.80;92.90;;;;;;5054917;28;20017;-75
2021/01/27 06:35:34;;;;;;;16.50;11.17;;;2.80;92.90;;;;;;5054619;28;20013;-75
2021/01/27 06:38:25;;;;;;;15.60;11.63;;;2.80;93.20;;;;;;5038424;28;20025;-75
2021/01/27 06:40:59;;;;;;;18.07;12.27;;;2.80;93.20;;;;;;5038495;28;20105;-75
2021/01/27 06:43:41;;;;;;;14.87;11.87;;;2.80;93.20;;;;;;5054272;28;20384;-75
2021/01/27 06:46:21;;;;;;;15.10;12.87;;;2.80;93.20;;;;;;5054810;28;20029;-75
2021/01/27 06:49:10;;;;;;;19.17;13.73;;;2.80;93.30;;;;;;5054245;28;20033;-75
2021/01/27 06:51:59;;;;;;;16.33;13.50;;;2.80;93.50;;;;;;5038778;28;20052;-75
2021/01/27 06:54:46;;;;;;;22.60;16.47;;;2.80;93.50;;;;;;5040227;28;20033;-74
2021/01/27 06:57:20;;;;;;;22.77;17.00;;;2.80;93.60;;;;;;5055500;28;20025;-75
2021/01/27 07:00:09;;;;;;;24.87;17.20;;;2.80;93.70;;;;;;5038456;28;20070;-75
2021/01/27 07:02:52;;;;;;;18.83;16.23;;;2.90;93.60;;;;;;5055108;28;20535;-75
2021/01/27 07:05:37;;;;;;;19.13;15.60;;;2.90;93.40;;;;;;5054281;28;20025;-75
2021/01/27 07:08:09;;;;;;;29.30;22.53;;;2.90;93.50;;;;;;5053902;28;20128;-75
2021/01/27 07:10:57;;;;;;;31.80;22.20;;;2.90;93.80;;;;;;5050053;28;20511;-76
2021/01/27 07:14:00;;;;;;;21.87;17.27;;;3.00;93.80;;;;;;5049458;28;20074;-75
2021/01/27 07:16:56;;;;;;;23.60;20.77;;;3.00;93.60;;;;;;5053742;28;20036;-75
2021/01/27 07:19:36;;;;;;;25.93;19.00;;;2.90;93.60;;;;;;5048092;28;20537;-75
2021/01/27 07:22:05;;;;;;;24.48;20.83;;;3.00;93.80;;;;;;5054956;28;20021;-75
2021/01/27 07:24:36;;;;;;;23.33;19.63;;;3.00;93.80;;;;;;5053490;28;20128;-75
2021/01/27 07:27:11;;;;;;;24.20;21.07;;;3.00;93.70;;;;;;5037656;28;20021;-75
2021/01/27 07:29:44;;;;;;;26.87;20.67;;;3.10;93.70;;;;;;5036994;28;20025;-75
2021/01/27 07:32:23;;;;;;;20.83;17.50;;;3.10;93.70;;;;;;5037660;28;20021;-75
2021/01/27 07:35:02;;;;;;;25.10;20.83;;;3.10;93.70;;;;;;5053634;28;20021;-75
2021/01/27 07:37:36;;;;;;;23.93;19.20;;;3.10;93.60;;;;;;5052709;28;20056;-75
2021/01/27 07:40:16;;;;;;;21.73;17.50;;;3.10;93.60;;;;;;5035372;28;20028;-75
2021/01/27 07:43:07;;;;;;;24.67;21.63;;;3.10;93.60;;;;;;5037705;28;20027;-75
2021/01/27 07:45:34;;;;;;;22.90;19.10;;;3.10;93.70;;;;;;5036033;28;20111;-75
2021/01/27 07:48:08;;;;;;;29.63;21.10;;;3.10;93.60;;;;;;5052923;28;20393;-75
2021/01/27 07:50:34;;;;;;;25.47;21.63;;;3.10;93.70;;;;;;5053277;28;20029;-75
2021/01/27 07:53:15;;;;;;;29.13;23.93;;;3.10;93.70;;;;;;5036579;28;20086;-75
2021/01/27 07:55:54;;;;;;;27.10;22.20;;;3.20;93.80;;;;;;5057077;28;20032;-76
2021/01/27 07:58:28;;;;;;;24.27;20.10;;;3.20;93.60;;;;;;5057518;28;20044;-76
2021/01/27 08:00:58;;;;;;;25.70;21.17;;;3.20;93.50;;;;;;5052272;28;20091;-76
2021/01/27 08:03:28;;;;;;;27.57;18.70;;;3.20;93.60;;;;;;5052253;28;20052;-75
2021/01/27 08:05:59;;;;;;;25.15;22.25;;;3.30;93.50;;;;;;5035577;28;20418;-75
2021/01/27 08:08:25;;;;;;;;;;;3.20;93.60;;;;;;5047639;28;20032;-79
2021/01/27 08:10:50;;;;;;;22.97;19.83;;;3.20;93.60;;;;;;5052478;28;19952;-76
2021/01/27 08:13:32;;;;;;;25.63;21.37;;;3.20;93.70;;;;;;5038841;28;20032;-76
2021/01/27 08:16:06;;;;;;;27.63;21.90;;;3.20;93.80;;;;;;5034724;28;20025;-75
2021/01/27 08:18:31;;;;;;;25.90;22.07;;;3.20;93.80;;;;;;5051920;28;20029;-76
2021/01/27 08:21:23;;;;;;;28.57;22.20;;;3.20;93.80;;;;;;5035867;28;20091;-75
2021/01/27 08:23:48;;;;;;;26.83;21.77;;;3.30;93.70;;;;;;5053351;28;20436;-78
2021/01/27 08:26:43;;;;;;;24.20;21.43;;;3.40;93.70;;;;;;5029859;28;20060;-78
2021/01/27 08:29:10;;;;;;;22.73;18.70;;;3.50;93.50;;;;;;5046008;28;20023;-77
2021/01/27 08:31:35;;;;;;;24.47;19.90;;;3.50;93.50;;;;;;5051130;28;20083;-77
2021/01/27 08:34:01;;;;;;;25.80;19.97;;;3.50;93.50;;;;;;5052923;28;20033;-77
2021/01/27 08:36:32;;;;;;;25.90;20.87;;;3.50;93.50;;;;;;5052318;28;20485;-77
2021/01/27 08:38:58;;;;;;;24.77;19.43;;;3.50;93.50;;;;;;5052475;28;20413;-77
2021/01/27 08:41:50;;;;;;;22.47;19.50;;;3.60;93.40;;;;;;5053711;28;20028;-77
2021/01/27 08:44:22;;;;;;;23.20;20.67;;;3.60;93.50;;;;;;5053633;28;20021;-77
2021/01/27 08:47:15;;;;;;;22.47;19.53;;;3.60;93.50;;;;;;5048174;28;20049;-77
2021/01/27 08:49:50;;;;;;;27.03;20.47;;;3.70;93.40;;;;;;5045718;28;20033;-78
2021/01/27 08:52:16;;;;;;;20.03;17.90;;;3.80;93.40;;;;;;5049419;28;21224;-78
2021/01/27 08:54:41;;;;;;;25.50;17.87;;;3.90;93.10;;;;;;5046071;28;20021;-78
2021/01/27 08:57:31;;;;;;;21.97;18.07;;;3.90;93.10;;;;;;5053147;28;20029;-77
2021/01/27 09:00:00;;;;;;;18.53;16.03;;;3.90;93.20;;;;;;5050728;28;20108;-78
2021/01/27 09:02:52;;;;;;;19.70;17.53;;;3.80;93.30;;;;;;5049034;28;20072;-78
2021/01/27 09:05:23;;;;;;;23.00;19.23;;;3.80;93.40;;;;;;5052356;28;20045;-77
2021/01/27 09:07:54;;;;;;;24.83;19.43;;;3.90;93.30;;;;;;5053339;28;20029;-78
2021/01/27 09:10:31;;;;;;;19.83;17.60;;;3.90;93.40;;;;;;5049375;28;20028;-78
2021/01/27 09:12:57;;;;;;;19.73;17.23;;;3.90;93.40;;;;;;5052331;28;20025;-79
2021/01/27 09:15:26;;;;;;;20.77;18.07;;;4.00;93.50;;;;;;5052091;28;20041;-78
2021/01/27 09:17:52;;;;;;;22.40;17.97;;;4.00;93.40;;;;;;5034294;28;20078;-77
2021/01/27 09:20:22;;;;;;;20.90;17.70;;;4.10;93.30;;;;;;5034439;28;20386;-78
2021/01/27 09:22:48;;;;;;;22.15;18.95;;;4.20;93.30;;;;;;5053676;28;20047;-77
2021/01/27 09:25:14;;;;;;;23.87;19.37;;;4.20;93.10;;;;;;5055609;28;20037;-78
2021/01/27 09:27:39;;;;;;;25.33;17.70;;;4.20;93.30;;;;;;5039016;28;20112;-78
2021/01/27 09:30:13;;;;;;;26.07;19.10;;;4.20;93.20;;;;;;5055295;28;20112;-77
2021/01/27 09:32:39;;;;;;;19.37;16.17;;;4.20;93.30;;;;;;5038804;28;20028;-77
2021/01/27 09:35:24;;;;;;;25.97;20.67;;;4.20;93.30;;;;;;5038817;28;20029;-77
2021/01/27 09:37:51;;;;;;;26.43;20.03;;;4.20;93.50;;;;;;5039095;28;20025;-77
2021/01/27 09:40:28;;;;;;;26.37;20.53;;;4.30;93.40;;;;;;5054924;28;20386;-77
2021/01/27 09:42:57;;;;;;;24.67;18.37;;;4.40;93.30;;;;;;5038690;28;20029;-78
2021/01/27 09:45:29;;;;;;;28.90;19.50;;;4.40;93.40;;;;;;5038129;28;20037;-77
2021/01/27 09:47:55;;;;;;;28.77;21.53;;;4.40;93.40;;;;;;5050996;28;21084;-78
2021/01/27 09:50:20;;;;;;;26.10;21.47;;;4.40;93.40;;;;;;5030197;28;20355;-77
2021/01/27 09:52:54;;;;;;;30.13;21.17;;;4.50;93.30;;;;;;5036884;28;20514;-85
2021/01/27 09:55:20;;;;;;;26.80;21.27;;;4.50;93.40;;;;;;5019277;28;20477;-77
2021/01/27 09:57:47;;;;;;;28.83;22.37;;;4.50;93.30;;;;;;5034945;28;20103;-77
2021/01/27 10:00:22;;;;;;;30.90;22.67;;;4.50;93.30;;;;;;5035332;28;20026;-77
2021/01/27 10:02:48;;;;;;;29.77;21.97;;;4.50;93.20;;;;;;5020026;28;20021;-77
2021/01/27 10:05:35;;;;;;;34.80;24.13;;;4.50;93.40;;;;;;5035075;28;20044;-77
2021/01/27 10:08:02;;;;;;;31.97;23.40;;;4.60;93.50;;;;;;5035113;28;20026;-77
2021/01/27 10:10:27;;;;;;;33.67;22.13;;;4.60;93.50;;;;;;5036565;28;20527;-77
2021/01/27 10:12:56;;;;;;;35.27;23.23;;;4.70;93.30;;;;;;5018779;28;20132;-77
2021/01/27 10:15:26;;;;;;;41.07;25.20;;;4.60;93.30;;;;;;5054717;28;20033;-81
2021/01/27 10:18:19;;;;;;;34.47;23.50;;;4.60;93.60;;;;;;5055175;28;20029;-78
2021/01/27 10:20:45;;;;;;;38.93;25.47;;;4.60;93.60;;;;;;5048338;28;20093;-77
2021/01/27 10:23:12;;;;;;;39.93;24.83;;;4.70;93.60;;;;;;5037427;28;20474;-78
2021/01/27 10:25:39;;;;;;;36.97;24.97;;;4.80;93.50;;;;;;5052990;28;20021;-77
2021/01/27 10:28:11;;;;;;;41.80;26.70;;;4.80;93.30;;;;;;5053942;28;20017;-77
2021/01/27 10:30:59;;;;;;;39.50;25.20;;;4.90;93.30;;;;;;5055886;28;20099;-77
2021/01/27 10:33:48;;;;;;;35.57;24.43;;;4.80;93.40;;;;;;5055051;28;20527;-78
2021/01/27 10:36:39;;;;;;;29.77;22.23;;;4.80;93.60;;;;;;5054183;28;20112;-75
2021/01/27 10:39:18;;;;;;;41.00;25.33;;;4.70;93.70;;;;;;5055696;28;20467;-77
2021/01/27 10:41:44;;;;;;;33.53;24.10;;;4.70;93.90;;;;;;5054172;28;20112;-75
2021/01/27 10:44:20;;;;;;;40.77;26.57;;;4.80;93.80;;;;;;5054005;28;20029;-76
2021/01/27 10:46:46;;;;;;;38.03;25.57;;;4.80;93.80;;;;;;5048898;28;20025;-75
2021/01/27 10:49:11;;;;;;;40.83;25.87;;;4.80;93.70;;;;;;5045407;28;20048;-83
2021/01/27 10:51:37;;;;;;;33.63;23.50;;;4.90;93.70;;;;;;5053900;28;20044;-76
2021/01/27 10:54:03;;;;;;;35.67;23.77;;;4.90;93.70;;;;;;5053893;28;20037;-78
2021/01/27 10:56:28;;;;;;;38.53;22.20;;;4.90;93.60;;;;;;5053684;28;20025;-77
2021/01/27 10:58:54;;;;;;;35.03;21.77;;;4.90;93.70;;;;;;5054000;28;20033;-75
2021/01/27 11:01:19;;;;;;;32.10;23.23;;;5.00;93.70;;;;;;5053682;28;20025;-76
2021/01/27 11:03:45;;;;;;;37.80;23.27;;;5.00;93.70;;;;;;5053840;28;20498;-76
2021/01/27 11:06:11;;;;;;;39.20;25.47;;;5.00;93.60;;;;;;5053954;28;20477;-75
2021/01/27 11:08:36;;;;;;;41.80;26.00;;;5.10;93.60;;;;;;5053649;28;20486;-75
2021/01/27 11:11:03;;;;;;;40.50;26.57;;;5.20;93.60;;;;;;5037218;28;20036;-76
2021/01/27 11:13:32;;;;;;;43.77;27.33;;;5.20;93.50;;;;;;5055037;28;20047;-75
2021/01/27 11:15:57;;;;;;;39.10;26.17;;;5.10;93.60;;;;;;5054026;28;20029;-76
2021/01/27 11:18:23;;;;;;;40.10;26.50;;;5.20;93.40;;;;;;5054927;28;20446;-76
2021/01/27 11:20:49;;;;;;;43.53;27.40;;;5.20;93.40;;;;;;5054151;28;20029;-75
2021/01/27 11:23:15;;;;;;;49.77;27.63;;;5.20;93.50;;;;;;5053849;28;20025;-76
2021/01/27 11:25:40;;;;;;;46.60;27.33;;;5.40;93.40;;;;;;5054886;28;20052;-76
2021/01/27 11:28:06;;;;;;;54.87;28.73;;;5.30;93.30;;;;;;5053762;28;20124;-76
2021/01/27 11:30:32;;;;;;;43.03;26.23;;;5.30;93.60;;;;;;5054819;28;20032;-76
2021/01/27 11:32:57;;;;;;;45.70;25.90;;;5.20;93.60;;;;;;5055004;28;20056;-78
2021/01/27 11:35:23;;;;;;;54.33;29.53;;;5.30;93.70;;;;;;5054473;28;20048;-75
2021/01/27 11:37:49;;;;;;;57.23;29.70;;;5.30;93.60;;;;;;5054803;28;20455;-75
2021/01/27 11:40:16;;;;;;;58.27;29.87;;;5.30;93.80;;;;;;5036909;28;20377;-77
2021/01/27 11:42:42;;;;;;;58.43;30.73;;;5.30;93.70;;;;;;5037536;28;20588;-76
2021/01/27 11:45:08;;;;;;;61.73;30.87;;;5.40;93.60;;;;;;5052486;28;20128;-76
2021/01/27 11:47:34;;;;;;;60.00;32.33;;;5.40;93.70;;;;;;5052964;28;20485;-75
2021/01/27 11:50:00;;;;;;;61.50;30.47;;;5.40;93.60;;;;;;5053895;28;20037;-76
2021/01/27 11:52:25;;;;;;;62.03;32.43;;;5.50;93.50;;;;;;5051403;28;20040;-76
2021/01/27 11:54:51;;;;;;;58.47;31.93;;;5.40;93.60;;;;;;5054480;28;20116;-78
2021/01/27 11:57:18;;;;;;;67.07;34.23;;;5.50;93.70;;;;;;5054373;28;20104;-76
2021/01/27 11:59:43;;;;;;;64.03;34.33;;;5.40;93.80;;;;;;5036090;28;20037;-76
2021/01/27 12:02:09;;;;;;;74.60;35.40;;;5.50;93.80;;;;;;5053905;28;20028;-77
2021/01/27 12:04:34;;;;;;;66.10;34.53;;;5.60;93.70;;;;;;5052518;28;20043;-76
2021/01/27 12:07:00;;;;;;;82.77;41.63;;;5.70;93.50;;;;;;5052294;28;20466;-77
2021/01/27 12:09:28;;;;;;;68.70;34.80;;;5.70;93.40;;;;;;5052453;28;20025;-77
2021/01/27 12:11:55;;;;;;;65.90;35.80;;;5.60;93.60;;;;;;5052082;28;20017;-78
2021/01/27 12:14:21;;;;;;;64.70;35.07;;;5.70;93.70;;;;;;5051371;28;20040;-77
2021/01/27 12:16:47;;;;;;;66.27;35.50;;;5.70;93.60;;;;;;5050770;28;20025;-77
2021/01/27 12:19:12;;;;;;;83.07;36.60;;;5.70;93.50;;;;;;5051345;28;20124;-78
2021/01/27 12:21:38;;;;;;;71.63;36.37;;;5.70;93.60;;;;;;5053003;28;20121;-78
2021/01/27 12:24:04;;;;;;;70.90;36.90;;;5.80;93.50;;;;;;5052262;28;20037;-78
2021/01/27 12:26:30;;;;;;;73.80;35.30;;;5.90;93.20;;;;;;5049912;28;20017;-77
2021/01/27 12:28:56;;;;;;;69.03;36.53;;;5.90;93.20;;;;;;5051576;28;20478;-77
2021/01/27 12:31:22;;;;;;;67.70;36.10;;;6.00;93.00;;;;;;5049833;28;20029;-77
2021/01/27 12:33:48;;;;;;;67.70;37.57;;;6.00;93.10;;;;;;5051763;28;20037;-78
2021/01/27 12:36:13;;;;;;;74.03;37.83;;;6.00;93.20;;;;;;5039676;28;20031;-85
2021/01/27 12:38:39;;;;;;;70.60;37.80;;;6.10;93.30;;;;;;5047770;28;20451;-81
2021/01/27 12:41:04;;;;;;;60.50;36.30;;;6.20;93.10;;;;;;5049671;28;20082;-76
2021/01/27 12:43:30;;;;;;;78.70;40.20;;;6.10;93.20;;;;;;5045453;28;20025;-77
2021/01/27 12:45:55;;;;;;;73.57;39.53;;;6.20;93.30;;;;;;5040580;28;20033;-77
2021/01/27 12:48:21;;;;;;;75.37;40.27;;;6.20;93.00;;;;;;5046164;28;20577;-76
2021/01/27 12:50:47;;;;;;;75.83;38.50;;;6.30;93.10;;;;;;5052172;28;20387;-76
2021/01/27 12:53:13;;;;;;;71.17;38.73;;;6.30;93.00;;;;;;5046882;28;20064;-76
2021/01/27 12:55:38;;;;;;;67.67;37.40;;;6.30;93.20;;;;;;5053974;28;20029;-76
2021/01/27 12:58:04;;;;;;;69.10;39.30;;;6.30;93.00;;;;;;5058371;28;20112;-76
2021/01/27 13:00:30;;;;;;;61.93;35.33;;;6.50;92.90;;;;;;5058708;28;20457;-76
2021/01/27 13:02:56;;;;;;;74.20;39.07;;;6.60;92.50;;;;;;5057354;28;20071;-77
2021/01/27 13:05:23;;;;;;;66.57;38.13;;;6.50;92.80;;;;;;5038813;28;20390;-77
2021/01/27 13:07:48;;;;;;;64.23;35.93;;;6.60;92.70;;;;;;5030965;28;20025;-83